sensor_id;sensor_type;location;lat;lon;timestamp;pressure;altitude;pressure_sealevel;temperature;humidity
77077;BME280;66003;52.286;104.306;2023-02-13T00:00:30;98523.91;;;-15.49;47.14
77077;BME280;66003;52.286;104.306;2023-02-13T00:02:56;98485.38;;;-15.66;45.94
77077;BME280;66003;52.286;104.306;2023-02-13T00:05:23;98555.34;;;-15.25;46.33
77077;BME280;66003;52.286;104.306;2023-02-13T00:07:49;98506.25;;;-15.55;46.33
77077;BME280;66003;52.286;104.306;2023-02-13T00:10:15;98554.31;;;-15.41;47.15
77077;BME280;66003;52.286;104.306;2023-02-13T00:12:41;98521.69;;;-15.56;46.70
77077;BME280;66003;52.286;104.306;2023-02-13T00:15:08;98528.69;;;-15.41;46.33
77077;BME280;66003;52.286;104.306;2023-02-13T00:17:35;98536.16;;;-15.55;46.68
77077;BME280;66003;52.286;104.306;2023-02-13T00:20:02;98540.53;;;-15.57;47.45
77077;BME280;66003;52.286;104.306;2023-02-13T00:22:29;98541.72;;;-15.46;46.43
77077;BME280;66003;52.286;104.306;2023-02-13T00:24:56;98531.25;;;-15.41;46.44
77077;BME280;66003;52.286;104.306;2023-02-13T00:27:22;98490.94;;;-15.77;46.36
77077;BME280;66003;52.286;104.306;2023-02-13T00:29:48;98531.72;;;-15.52;46.34
77077;BME280;66003;52.286;104.306;2023-02-13T00:32:14;98514.50;;;-15.68;46.32
77077;BME280;66003;52.286;104.306;2023-02-13T00:34:41;98509.72;;;-15.76;46.46
77077;BME280;66003;52.286;104.306;2023-02-13T00:37:09;98522.28;;;-15.31;46.08
77077;BME280;66003;52.286;104.306;2023-02-13T00:39:35;98512.66;;;-14.68;44.96
77077;BME280;66003;52.286;104.306;2023-02-13T00:42:01;98417.06;;;-14.37;44.56
77077;BME280;66003;52.286;104.306;2023-02-13T00:44:27;98448.53;;;-13.30;43.28
77077;BME280;66003;52.286;104.306;2023-02-13T00:46:53;98483.84;;;-12.07;39.50
77077;BME280;66003;52.286;104.306;2023-02-13T00:49:19;98479.69;;;-10.92;38.71
77077;BME280;66003;52.286;104.306;2023-02-13T00:51:46;98484.63;;;-9.93;38.74
77077;BME280;66003;52.286;104.306;2023-02-13T00:54:12;98447.13;;;-9.73;39.04
77077;BME280;66003;52.286;104.306;2023-02-13T00:56:39;98482.59;;;-9.10;39.26
77077;BME280;66003;52.286;104.306;2023-02-13T00:59:05;98477.63;;;-8.39;39.18
77077;BME280;66003;52.286;104.306;2023-02-13T01:01:31;98462.19;;;-7.58;35.41
77077;BME280;66003;52.286;104.306;2023-02-13T01:03:57;98461.25;;;-6.66;35.10
77077;BME280;66003;52.286;104.306;2023-02-13T01:06:23;98460.44;;;-6.12;33.45
77077;BME280;66003;52.286;104.306;2023-02-13T01:08:49;98457.22;;;-5.73;36.14
77077;BME280;66003;52.286;104.306;2023-02-13T01:11:16;98423.38;;;-5.52;32.90
77077;BME280;66003;52.286;104.306;2023-02-13T01:13:44;98443.50;;;-4.52;29.33
77077;BME280;66003;52.286;104.306;2023-02-13T01:16:10;98442.22;;;-4.17;26.64
77077;BME280;66003;52.286;104.306;2023-02-13T01:18:37;98408.84;;;-3.85;25.53
77077;BME280;66003;52.286;104.306;2023-02-13T01:21:08;98407.47;;;-2.94;24.63
77077;BME280;66003;52.286;104.306;2023-02-13T01:23:40;98446.19;;;-2.06;23.77
77077;BME280;66003;52.286;104.306;2023-02-13T01:26:07;98445.28;;;-1.26;22.87
77077;BME280;66003;52.286;104.306;2023-02-13T01:28:34;98439.34;;;-0.50;22.46
77077;BME280;66003;52.286;104.306;2023-02-13T01:31:00;98430.66;;;-0.01;23.69
77077;BME280;66003;52.286;104.306;2023-02-13T01:33:27;98436.13;;;0.30;21.68
77077;BME280;66003;52.286;104.306;2023-02-13T01:35:54;98398.97;;;0.17;20.93
77077;BME280;66003;52.286;104.306;2023-02-13T01:38:20;98400.63;;;0.26;20.15
77077;BME280;66003;52.286;104.306;2023-02-13T01:40:48;98436.31;;;0.45;20.17
77077;BME280;66003;52.286;104.306;2023-02-13T01:43:15;98428.28;;;0.47;19.81
77077;BME280;66003;52.286;104.306;2023-02-13T01:45:43;98379.25;;;-0.03;19.76
77077;BME280;66003;52.286;104.306;2023-02-13T01:48:18;98431.34;;;-0.41;20.73
77077;BME280;66003;52.286;104.306;2023-02-13T01:50:54;98422.25;;;-0.88;20.49
77077;BME280;66003;52.286;104.306;2023-02-13T01:53:36;98423.84;;;-0.27;20.08
77077;BME280;66003;52.286;104.306;2023-02-13T01:58:47;98389.13;;;0.27;19.71
77077;BME280;66003;52.286;104.306;2023-02-13T02:01:14;98375.47;;;0.72;19.11
77077;BME280;66003;52.286;104.306;2023-02-13T02:03:48;98409.59;;;1.76;22.12
77077;BME280;66003;52.286;104.306;2023-02-13T02:06:30;98399.41;;;1.65;19.80
77077;BME280;66003;52.286;104.306;2023-02-13T02:09:04;98355.75;;;0.68;21.70
77077;BME280;66003;52.286;104.306;2023-02-13T02:11:40;98388.53;;;1.29;23.04
77077;BME280;66003;52.286;104.306;2023-02-13T02:14:09;98344.56;;;0.75;19.54
77077;BME280;66003;52.286;104.306;2023-02-13T02:16:55;98379.88;;;1.83;18.88
77077;BME280;66003;52.286;104.306;2023-02-13T02:36:14;98354.28;;;3.77;17.99
77077;BME280;66003;52.286;104.306;2023-02-13T02:44:40;98353.59;;;2.43;18.39
77077;BME280;66003;52.286;104.306;2023-02-13T02:53:07;98323.56;;;4.96;17.67
77077;BME280;66003;52.286;104.306;2023-02-13T02:58:21;98325.91;;;3.50;18.16
77077;BME280;66003;52.286;104.306;2023-02-13T03:01:12;98302.91;;;3.65;17.90
77077;BME280;66003;52.286;104.306;2023-02-13T03:03:59;98279.94;;;2.71;18.42
77077;BME280;66003;52.286;104.306;2023-02-13T03:09:18;98254.09;;;2.14;19.51
77077;BME280;66003;52.286;104.306;2023-02-13T03:12:03;98263.88;;;-0.55;21.65
77077;BME280;66003;52.286;104.306;2023-02-13T03:14:48;98298.91;;;-2.98;24.00
77077;BME280;66003;52.286;104.306;2023-02-13T03:17:16;98253.06;;;-4.23;25.69
77077;BME280;66003;52.286;104.306;2023-02-13T03:20:19;98308.13;;;-4.45;27.20
77077;BME280;66003;52.286;104.306;2023-02-13T03:30:13;98277.91;;;-4.09;26.32
77077;BME280;66003;52.286;104.306;2023-02-13T03:38:12;98277.56;;;-5.73;29.81
77077;BME280;66003;52.286;104.306;2023-02-13T03:40:52;98219.44;;;-6.34;30.67
77077;BME280;66003;52.286;104.306;2023-02-13T03:46:30;98256.88;;;-6.26;32.12
77077;BME280;66003;52.286;104.306;2023-02-13T03:49:02;98248.41;;;-5.97;31.05
77077;BME280;66003;52.286;104.306;2023-02-13T03:51:54;98243.38;;;-5.89;31.92
77077;BME280;66003;52.286;104.306;2023-02-13T03:57:14;98234.38;;;-5.55;32.44
77077;BME280;66003;52.286;104.306;2023-02-13T04:00:06;98206.94;;;-5.49;33.74
77077;BME280;66003;52.286;104.306;2023-02-13T04:02:37;98240.25;;;-5.13;33.82
77077;BME280;66003;52.286;104.306;2023-02-13T04:05:16;98234.22;;;-5.03;32.99
77077;BME280;66003;52.286;104.306;2023-02-13T04:07:43;98190.59;;;-5.11;33.44
77077;BME280;66003;52.286;104.306;2023-02-13T04:10:13;98189.50;;;-4.99;33.21
77077;BME280;66003;52.286;104.306;2023-02-13T04:12:56;98224.09;;;-4.68;33.80
77077;BME280;66003;52.286;104.306;2023-02-13T04:15:28;98211.06;;;-4.58;33.28
77077;BME280;66003;52.286;104.306;2023-02-13T04:18:17;98201.59;;;-4.40;33.66
77077;BME280;66003;52.286;104.306;2023-02-13T04:20:43;98194.56;;;-4.30;33.16
77077;BME280;66003;52.286;104.306;2023-02-13T04:23:11;98144.88;;;-4.48;33.15
77077;BME280;66003;52.286;104.306;2023-02-13T04:25:40;98167.38;;;-4.27;33.39
77077;BME280;66003;52.286;104.306;2023-02-13T04:28:06;98161.41;;;-4.10;32.67
77077;BME280;66003;52.286;104.306;2023-02-13T04:30:33;98142.84;;;-4.07;32.67
77077;BME280;66003;52.286;104.306;2023-02-13T04:32:59;98152.94;;;-3.85;32.33
77077;BME280;66003;52.286;104.306;2023-02-13T04:35:25;98147.81;;;-3.77;32.38
77077;BME280;66003;52.286;104.306;2023-02-13T04:37:51;98096.78;;;-3.98;31.90
77077;BME280;66003;52.286;104.306;2023-02-13T04:40:17;98126.41;;;-3.80;31.25
77077;BME280;66003;52.286;104.306;2023-02-13T04:42:46;98120.03;;;-3.68;31.84
77077;BME280;66003;52.286;104.306;2023-02-13T04:45:14;98082.72;;;-3.88;31.32
77077;BME280;66003;52.286;104.306;2023-02-13T04:47:40;98074.44;;;-3.83;31.64
77077;BME280;66003;52.286;104.306;2023-02-13T04:50:07;98056.72;;;-3.80;31.39
77077;BME280;66003;52.286;104.306;2023-02-13T04:52:33;98089.22;;;-3.47;31.18
77077;BME280;66003;52.286;104.306;2023-02-13T04:54:59;98077.69;;;-3.54;30.85
77077;BME280;66003;52.286;104.306;2023-02-13T04:57:25;98059.25;;;-3.52;30.87
77077;BME280;66003;52.286;104.306;2023-02-13T04:59:52;98072.78;;;-3.57;30.49
77077;BME280;66003;52.286;104.306;2023-02-13T05:02:18;98013.72;;;-3.85;31.02
77077;BME280;66003;52.286;104.306;2023-02-13T05:04:44;98051.44;;;-3.70;30.73
77077;BME280;66003;52.286;104.306;2023-02-13T05:07:10;98042.03;;;-3.63;30.56
77077;BME280;66003;52.286;104.306;2023-02-13T05:09:36;97993.09;;;-3.88;30.95
77077;BME280;66003;52.286;104.306;2023-02-13T05:12:02;97985.75;;;-3.75;30.70
77077;BME280;66003;52.286;104.306;2023-02-13T05:14:28;97986.13;;;-3.52;30.74
77077;BME280;66003;52.286;104.306;2023-02-13T05:16:54;97987.91;;;-3.35;30.63
77077;BME280;66003;52.286;104.306;2023-02-13T05:19:21;97994.00;;;-3.09;31.01
77077;BME280;66003;52.286;104.306;2023-02-13T05:21:47;97978.97;;;-3.07;30.29
77077;BME280;66003;52.286;104.306;2023-02-13T05:24:31;97987.63;;;-3.06;29.49
77077;BME280;66003;52.286;104.306;2023-02-13T05:26:57;97966.88;;;-3.08;30.24
77077;BME280;66003;52.286;104.306;2023-02-13T05:29:23;98007.03;;;-2.91;29.67
77077;BME280;66003;52.286;104.306;2023-02-13T05:31:54;97960.47;;;-3.13;30.31
77077;BME280;66003;52.286;104.306;2023-02-13T05:34:23;97949.03;;;-3.12;30.10
77077;BME280;66003;52.286;104.306;2023-02-13T05:36:49;97941.91;;;-3.02;30.19
77077;BME280;66003;52.286;104.306;2023-02-13T05:39:16;97922.81;;;-2.95;30.20
77077;BME280;66003;52.286;104.306;2023-02-13T05:41:43;97964.34;;;-2.66;29.53
77077;BME280;66003;52.286;104.306;2023-02-13T05:44:10;97888.34;;;-2.98;29.50
77077;BME280;66003;52.286;104.306;2023-02-13T05:46:37;97927.97;;;-2.51;29.41
77077;BME280;66003;52.286;104.306;2023-02-13T05:49:03;97952.19;;;-2.41;28.83
77077;BME280;66003;52.286;104.306;2023-02-13T05:51:30;97929.63;;;-2.34;29.54
77077;BME280;66003;52.286;104.306;2023-02-13T05:53:56;97934.47;;;-2.13;29.35
77077;BME280;66003;52.286;104.306;2023-02-13T05:56:22;97922.69;;;-2.09;29.22
77077;BME280;66003;52.286;104.306;2023-02-13T05:58:53;97931.88;;;-2.05;29.12
77077;BME280;66003;52.286;104.306;2023-02-13T06:01:20;97903.19;;;-2.14;29.20
77077;BME280;66003;52.286;104.306;2023-02-13T06:03:46;97889.44;;;-2.16;29.14
77077;BME280;66003;52.286;104.306;2023-02-13T06:06:12;97878.47;;;-2.20;28.66
77077;BME280;66003;52.286;104.306;2023-02-13T06:08:38;97907.63;;;-2.07;29.76
77077;BME280;66003;52.286;104.306;2023-02-13T06:11:04;97911.59;;;-1.95;28.73
77077;BME280;66003;52.286;104.306;2023-02-13T06:13:31;97915.03;;;-1.94;28.33
77077;BME280;66003;52.286;104.306;2023-02-13T06:15:57;97882.75;;;-2.03;29.15
77077;BME280;66003;52.286;104.306;2023-02-13T06:18:23;97894.91;;;-1.77;29.61
77077;BME280;66003;52.286;104.306;2023-02-13T06:20:49;97883.09;;;-2.06;28.83
77077;BME280;66003;52.286;104.306;2023-02-13T06:23:15;97884.25;;;-1.76;29.24
77077;BME280;66003;52.286;104.306;2023-02-13T06:25:41;97884.25;;;-1.52;29.39
77077;BME280;66003;52.286;104.306;2023-02-13T06:28:08;97868.38;;;-1.58;29.23
77077;BME280;66003;52.286;104.306;2023-02-13T06:30:34;97875.56;;;-1.52;29.06
77077;BME280;66003;52.286;104.306;2023-02-13T06:33:01;97855.59;;;-1.45;29.08
77077;BME280;66003;52.286;104.306;2023-02-13T06:35:27;97845.59;;;-1.50;28.85
77077;BME280;66003;52.286;104.306;2023-02-13T06:37:53;97815.63;;;-1.63;28.19
77077;BME280;66003;52.286;104.306;2023-02-13T06:40:19;97866.00;;;-1.13;29.42
77077;BME280;66003;52.286;104.306;2023-02-13T06:42:45;97832.94;;;-1.22;29.21
77077;BME280;66003;52.286;104.306;2023-02-13T06:45:12;97824.75;;;-1.35;28.63
77077;BME280;66003;52.286;104.306;2023-02-13T06:47:46;97829.44;;;-1.14;28.79
77077;BME280;66003;52.286;104.306;2023-02-13T06:50:13;97846.75;;;-0.89;28.53
77077;BME280;66003;52.286;104.306;2023-02-13T06:52:49;97835.94;;;-0.86;29.04
77077;BME280;66003;52.286;104.306;2023-02-13T06:55:16;97819.69;;;-0.89;28.75
77077;BME280;66003;52.286;104.306;2023-02-13T06:57:43;97823.34;;;-0.98;27.94
77077;BME280;66003;52.286;104.306;2023-02-13T07:00:11;97822.31;;;-0.89;28.21
77077;BME280;66003;52.286;104.306;2023-02-13T07:02:40;97769.00;;;-1.21;28.42
77077;BME280;66003;52.286;104.306;2023-02-13T07:05:07;97799.91;;;-1.00;28.10
77077;BME280;66003;52.286;104.306;2023-02-13T07:07:38;97788.59;;;-1.00;28.22
77077;BME280;66003;52.286;104.306;2023-02-13T07:10:06;97773.50;;;-0.98;28.54
77077;BME280;66003;52.286;104.306;2023-02-13T07:12:32;97792.31;;;-0.87;28.62
77077;BME280;66003;52.286;104.306;2023-02-13T07:14:59;97785.41;;;-0.88;28.28
77077;BME280;66003;52.286;104.306;2023-02-13T07:17:25;97758.97;;;-1.09;27.85
77077;BME280;66003;52.286;104.306;2023-02-13T07:19:51;97744.88;;;-1.08;28.04
77077;BME280;66003;52.286;104.306;2023-02-13T07:22:18;97760.50;;;-0.92;28.62
77077;BME280;66003;52.286;104.306;2023-02-13T07:24:44;97739.28;;;-1.13;26.99
77077;BME280;66003;52.286;104.306;2023-02-13T07:27:10;97758.97;;;-0.78;27.86
77077;BME280;66003;52.286;104.306;2023-02-13T07:29:36;97738.19;;;-0.88;27.73
77077;BME280;66003;52.286;104.306;2023-02-13T07:32:02;97724.13;;;-0.95;27.77
77077;BME280;66003;52.286;104.306;2023-02-13T07:34:30;97765.34;;;-0.73;27.47
77077;BME280;66003;52.286;104.306;2023-02-13T07:36:56;97761.91;;;-0.81;27.19
77077;BME280;66003;52.286;104.306;2023-02-13T07:39:22;97739.19;;;-0.89;27.78
77077;BME280;66003;52.286;104.306;2023-02-13T07:41:49;97735.34;;;-0.78;27.86
77077;BME280;66003;52.286;104.306;2023-02-13T07:44:15;97749.06;;;-0.68;28.19
77077;BME280;66003;52.286;104.306;2023-02-13T07:46:41;97625.66;;;-1.36;27.79
77077;BME280;66003;52.286;104.306;2023-02-13T07:49:07;97694.91;;;-0.92;28.19
77077;BME280;66003;52.286;104.306;2023-02-13T07:51:33;97691.91;;;-1.12;27.80
77077;BME280;66003;52.286;104.306;2023-02-13T07:54:01;97694.44;;;-1.18;27.99
77077;BME280;66003;52.286;104.306;2023-02-13T07:56:27;97737.56;;;-0.67;28.22
77077;BME280;66003;52.286;104.306;2023-02-13T07:58:53;97690.31;;;-0.90;27.97
77077;BME280;66003;52.286;104.306;2023-02-13T08:01:20;97728.94;;;-0.76;27.31
77077;BME280;66003;52.286;104.306;2023-02-13T08:03:49;97732.88;;;-0.71;27.78
77077;BME280;66003;52.286;104.306;2023-02-13T08:06:16;97708.69;;;-0.67;27.74
77077;BME280;66003;52.286;104.306;2023-02-13T08:08:43;97702.69;;;-0.76;27.58
77077;BME280;66003;52.286;104.306;2023-02-13T08:11:30;97705.16;;;-0.74;27.60
77077;BME280;66003;52.286;104.306;2023-02-13T08:14:15;97699.31;;;-0.61;28.20
77077;BME280;66003;52.286;104.306;2023-02-13T08:16:42;97700.00;;;-0.67;28.14
77077;BME280;66003;52.286;104.306;2023-02-13T08:19:08;97694.91;;;-0.61;28.29
77077;BME280;66003;52.286;104.306;2023-02-13T08:21:34;97702.69;;;-0.53;28.21
77077;BME280;66003;52.286;104.306;2023-02-13T08:24:03;97702.81;;;-0.46;28.33
77077;BME280;66003;52.286;104.306;2023-02-13T08:26:30;97662.91;;;-0.64;28.53
77077;BME280;66003;52.286;104.306;2023-02-13T08:28:57;97647.41;;;-0.74;28.78
77077;BME280;66003;52.286;104.306;2023-02-13T08:31:23;97700.00;;;-0.45;28.75
77077;BME280;66003;52.286;104.306;2023-02-13T08:33:51;97696.22;;;-0.65;28.75
77077;BME280;66003;52.286;104.306;2023-02-13T08:36:17;97651.88;;;-1.05;28.10
77077;BME280;66003;52.286;104.306;2023-02-13T08:38:47;97679.72;;;-0.74;28.54
77077;BME280;66003;52.286;104.306;2023-02-13T08:41:13;97638.31;;;-1.09;28.46
77077;BME280;66003;52.286;104.306;2023-02-13T08:43:40;97650.25;;;-1.06;28.70
77077;BME280;66003;52.286;104.306;2023-02-13T08:46:06;97637.19;;;-1.15;28.25
77077;BME280;66003;52.286;104.306;2023-02-13T08:48:32;97682.28;;;-0.88;28.82
77077;BME280;66003;52.286;104.306;2023-02-13T08:50:59;97670.19;;;-0.97;28.83
77077;BME280;66003;52.286;104.306;2023-02-13T08:53:30;97649.66;;;-1.17;29.04
77077;BME280;66003;52.286;104.306;2023-02-13T08:55:56;97645.38;;;-1.18;29.06
77077;BME280;66003;52.286;104.306;2023-02-13T08:58:23;97659.03;;;-1.22;29.02
77077;BME280;66003;52.286;104.306;2023-02-13T09:00:49;97628.72;;;-1.56;29.00
77077;BME280;66003;52.286;104.306;2023-02-13T09:03:15;97668.69;;;-1.23;29.47
77077;BME280;66003;52.286;104.306;2023-02-13T09:05:42;97677.44;;;-1.38;29.18
77077;BME280;66003;52.286;104.306;2023-02-13T09:08:08;97665.50;;;-1.41;29.21
77077;BME280;66003;52.286;104.306;2023-02-13T09:10:36;97669.97;;;-1.50;29.51
77077;BME280;66003;52.286;104.306;2023-02-13T09:13:03;97670.81;;;-1.57;29.67
77077;BME280;66003;52.286;104.306;2023-02-13T09:15:30;97637.00;;;-1.83;29.73
77077;BME280;66003;52.286;104.306;2023-02-13T09:17:57;97661.69;;;-1.69;29.90
77077;BME280;66003;52.286;104.306;2023-02-13T09:20:23;97648.97;;;-1.80;29.89
77077;BME280;66003;52.286;104.306;2023-02-13T09:22:50;97644.44;;;-2.03;29.88
77077;BME280;66003;52.286;104.306;2023-02-13T09:25:16;97634.63;;;-2.01;30.15
77077;BME280;66003;52.286;104.306;2023-02-13T09:27:45;97603.78;;;-2.38;30.17
77077;BME280;66003;52.286;104.306;2023-02-13T09:30:11;97626.50;;;-2.38;30.43
77077;BME280;66003;52.286;104.306;2023-02-13T09:32:42;97648.56;;;-2.33;30.41
77077;BME280;66003;52.286;104.306;2023-02-13T09:35:08;97648.28;;;-2.38;30.56
77077;BME280;66003;52.286;104.306;2023-02-13T09:37:35;97657.91;;;-2.38;30.60
77077;BME280;66003;52.286;104.306;2023-02-13T09:40:02;97635.38;;;-2.64;31.03
77077;BME280;66003;52.286;104.306;2023-02-13T09:42:32;97617.38;;;-2.67;30.96
77077;BME280;66003;52.286;104.306;2023-02-13T09:45:03;97633.53;;;-2.71;30.94
77077;BME280;66003;52.286;104.306;2023-02-13T09:47:35;97640.41;;;-2.70;31.01
77077;BME280;66003;52.286;104.306;2023-02-13T09:50:06;97610.03;;;-2.96;31.37
77077;BME280;66003;52.286;104.306;2023-02-13T09:52:37;97596.78;;;-3.10;31.53
77077;BME280;66003;52.286;104.306;2023-02-13T09:55:18;97609.19;;;-3.04;31.51
77077;BME280;66003;52.286;104.306;2023-02-13T09:58:14;97628.59;;;-3.23;32.00
77077;BME280;66003;52.286;104.306;2023-02-13T10:00:53;97637.47;;;-3.08;32.16
77077;BME280;66003;52.286;104.306;2023-02-13T10:06:43;97633.84;;;-3.23;32.34
77077;BME280;66003;52.286;104.306;2023-02-13T10:12:19;97636.75;;;-3.34;32.44
77077;BME280;66003;52.286;104.306;2023-02-13T10:17:41;97588.63;;;-3.82;33.01
77077;BME280;66003;52.286;104.306;2023-02-13T10:22:53;97606.69;;;-3.88;33.50
77077;BME280;66003;52.286;104.306;2023-02-13T10:31:04;97633.44;;;-3.94;33.57
77077;BME280;66003;52.286;104.306;2023-02-13T10:33:40;97632.88;;;-4.06;33.91
77077;BME280;66003;52.286;104.306;2023-02-13T10:36:16;97587.72;;;-4.32;34.08
77077;BME280;66003;52.286;104.306;2023-02-13T10:52:04;97575.25;;;-4.98;35.40
77077;BME280;66003;52.286;104.306;2023-02-13T10:57:20;97564.72;;;-5.06;35.45
77077;BME280;66003;52.286;104.306;2023-02-13T11:00:06;97607.59;;;-4.83;35.35
77077;BME280;66003;52.286;104.306;2023-02-13T11:02:35;97589.53;;;-5.02;36.24
77077;BME280;66003;52.286;104.306;2023-02-13T11:05:29;97598.84;;;-5.00;36.12
77077;BME280;66003;52.286;104.306;2023-02-13T11:07:56;97601.69;;;-5.11;36.36
77077;BME280;66003;52.286;104.306;2023-02-13T11:10:25;97601.81;;;-5.13;36.45
77077;BME280;66003;52.286;104.306;2023-02-13T11:12:51;97608.97;;;-5.15;35.42
77077;BME280;66003;52.286;104.306;2023-02-13T11:15:31;97561.53;;;-5.54;36.58
77077;BME280;66003;52.286;104.306;2023-02-13T11:18:12;97598.47;;;-5.58;36.71
77077;BME280;66003;52.286;104.306;2023-02-13T11:20:41;97614.75;;;-5.56;36.53
77077;BME280;66003;52.286;104.306;2023-02-13T11:28:28;97556.97;;;-5.87;36.81
77077;BME280;66003;52.286;104.306;2023-02-13T11:31:13;97596.88;;;-5.69;36.66
77077;BME280;66003;52.286;104.306;2023-02-13T11:33:44;97565.97;;;-5.99;36.84
77077;BME280;66003;52.286;104.306;2023-02-13T11:36:29;97616.63;;;-5.76;37.14
77077;BME280;66003;52.286;104.306;2023-02-13T11:39:05;97605.03;;;-5.82;36.48
77077;BME280;66003;52.286;104.306;2023-02-13T11:41:43;97579.88;;;-6.08;37.26
77077;BME280;66003;52.286;104.306;2023-02-13T11:44:28;97575.38;;;-6.16;37.15
77077;BME280;66003;52.286;104.306;2023-02-13T11:46:59;97571.66;;;-6.13;36.82
77077;BME280;66003;52.286;104.306;2023-02-13T11:49:34;97621.31;;;-5.97;37.42
77077;BME280;66003;52.286;104.306;2023-02-13T11:52:05;97626.13;;;-6.02;36.99
77077;BME280;66003;52.286;104.306;2023-02-13T11:54:35;97613.25;;;-6.04;37.30
77077;BME280;66003;52.286;104.306;2023-02-13T11:57:22;97616.69;;;-6.03;36.78
77077;BME280;66003;52.286;104.306;2023-02-13T11:59:51;97607.13;;;-6.12;36.94
77077;BME280;66003;52.286;104.306;2023-02-13T12:02:23;97604.69;;;-6.24;36.06
77077;BME280;66003;52.286;104.306;2023-02-13T12:04:53;97600.91;;;-6.29;35.31
77077;BME280;66003;52.286;104.306;2023-02-13T12:07:22;97551.88;;;-6.51;35.53
77077;BME280;66003;52.286;104.306;2023-02-13T12:09:54;97598.59;;;-6.32;35.65
77077;BME280;66003;52.286;104.306;2023-02-13T12:12:33;97569.16;;;-6.33;35.48
77077;BME280;66003;52.286;104.306;2023-02-13T12:15:04;97575.28;;;-6.24;35.62
77077;BME280;66003;52.286;104.306;2023-02-13T12:17:42;97595.69;;;-6.29;35.57
77077;BME280;66003;52.286;104.306;2023-02-13T12:20:16;97529.16;;;-6.59;35.43
77077;BME280;66003;52.286;104.306;2023-02-13T12:23:05;97538.09;;;-6.71;35.77
77077;BME280;66003;52.286;104.306;2023-02-13T12:25:44;97604.22;;;-6.46;35.91
77077;BME280;66003;52.286;104.306;2023-02-13T12:28:26;97533.63;;;-6.79;35.83
77077;BME280;66003;52.286;104.306;2023-02-13T12:36:57;97605.63;;;-6.52;37.26
77077;BME280;66003;52.286;104.306;2023-02-13T12:39:34;97596.31;;;-6.54;37.77
77077;BME280;66003;52.286;104.306;2023-02-13T12:47:28;97604.31;;;-6.75;36.53
77077;BME280;66003;52.286;104.306;2023-02-13T12:53:10;97583.38;;;-6.83;37.26
77077;BME280;66003;52.286;104.306;2023-02-13T12:58:48;97529.75;;;-7.21;36.89
77077;BME280;66003;52.286;104.306;2023-02-13T13:02:02;97576.06;;;-6.98;36.64
77077;BME280;66003;52.286;104.306;2023-02-13T13:15:31;97556.13;;;-7.45;37.20
77077;BME280;66003;52.286;104.306;2023-02-13T13:18:28;97549.44;;;-7.48;37.10
77077;BME280;66003;52.286;104.306;2023-02-13T13:23:43;97496.81;;;-7.98;37.55
77077;BME280;66003;52.286;104.306;2023-02-13T13:26:51;97485.75;;;-8.00;37.27
77077;BME280;66003;52.286;104.306;2023-02-13T13:29:22;97529.06;;;-7.81;38.17
77077;BME280;66003;52.286;104.306;2023-02-13T13:31:54;97519.47;;;-8.00;38.10
77077;BME280;66003;52.286;104.306;2023-02-13T13:34:25;97486.69;;;-8.30;38.57
77077;BME280;66003;52.286;104.306;2023-02-13T13:45:37;97510.75;;;-8.09;39.76
77077;BME280;66003;52.286;104.306;2023-02-13T13:50:46;97513.47;;;-8.10;38.89
77077;BME280;66003;52.286;104.306;2023-02-13T13:53:17;97525.59;;;-8.11;39.37
77077;BME280;66003;52.286;104.306;2023-02-13T13:58:23;97496.22;;;-8.30;38.81
77077;BME280;66003;52.286;104.306;2023-02-13T14:01:22;97508.00;;;-8.17;38.88
77077;BME280;66003;52.286;104.306;2023-02-13T14:03:50;97514.00;;;-8.16;39.06
77077;BME280;66003;52.286;104.306;2023-02-13T14:06:19;97434.28;;;-8.62;38.39
77077;BME280;66003;52.286;104.306;2023-02-13T14:08:53;97525.72;;;-8.12;38.95
77077;BME280;66003;52.286;104.306;2023-02-13T14:11:38;97506.63;;;-8.21;38.59
77077;BME280;66003;52.286;104.306;2023-02-13T14:16:53;97517.25;;;-8.24;38.58
77077;BME280;66003;52.286;104.306;2023-02-13T14:19:23;97510.13;;;-8.51;40.87
77077;BME280;66003;52.286;104.306;2023-02-13T14:21:51;97450.00;;;-8.85;41.28
77077;BME280;66003;52.286;104.306;2023-02-13T14:24:18;97491.84;;;-8.49;39.46
77077;BME280;66003;52.286;104.306;2023-02-13T14:26:51;97482.44;;;-8.50;39.24
77077;BME280;66003;52.286;104.306;2023-02-13T14:29:28;97497.56;;;-8.55;41.39
77077;BME280;66003;52.286;104.306;2023-02-13T14:32:01;97485.75;;;-8.79;42.63
77077;BME280;66003;52.286;104.306;2023-02-13T14:34:34;97447.91;;;-9.00;41.84
77077;BME280;66003;52.286;104.306;2023-02-13T14:37:06;97489.44;;;-8.71;41.11
77077;BME280;66003;52.286;104.306;2023-02-13T14:39:42;97475.38;;;-8.79;40.71
77077;BME280;66003;52.286;104.306;2023-02-13T14:42:26;97484.69;;;-8.76;42.63
77077;BME280;66003;52.286;104.306;2023-02-13T14:44:55;97488.22;;;-8.77;41.72
77077;BME280;66003;52.286;104.306;2023-02-13T14:49:54;97480.69;;;-8.80;42.88
77077;BME280;66003;52.286;104.306;2023-02-13T14:52:28;97426.34;;;-9.10;42.94
77077;BME280;66003;52.286;104.306;2023-02-13T14:55:02;97477.13;;;-8.89;43.50
77077;BME280;66003;52.286;104.306;2023-02-13T14:57:37;97465.41;;;-8.83;42.29
77077;BME280;66003;52.286;104.306;2023-02-13T15:00:15;97451.28;;;-9.09;43.46
77077;BME280;66003;52.286;104.306;2023-02-13T15:02:47;97460.44;;;-8.96;42.38
77077;BME280;66003;52.286;104.306;2023-02-13T15:05:16;97429.84;;;-9.21;42.72
77077;BME280;66003;52.286;104.306;2023-02-13T15:07:49;97460.28;;;-9.04;42.28
77077;BME280;66003;52.286;104.306;2023-02-13T15:13:01;97452.63;;;-9.15;42.48
77077;BME280;66003;52.286;104.306;2023-02-13T15:15:33;97444.97;;;-9.17;42.57
77077;BME280;66003;52.286;104.306;2023-02-13T15:18:08;97444.69;;;-9.23;43.61
77077;BME280;66003;52.286;104.306;2023-02-13T15:20:39;97434.19;;;-9.22;42.62
77077;BME280;66003;52.286;104.306;2023-02-13T15:23:24;97420.53;;;-9.33;43.68
77077;BME280;66003;52.286;104.306;2023-02-13T15:26:03;97374.00;;;-9.75;44.93